Aviation Digital Data Service (ADDS)

Output produced by METARs form (2042 UTC 20 August 2019)
found at http://www.aviationweather.gov/metar/data/
 
Forecast for: OOSA (SALALAH , OM)
Text: TAF OOSA 201700Z 2018/2200 VRB03KT 7000 SCT014 BKN025
Forecast period: 1800 UTC 20 August 2019 to 0700 UTC 21 August 2019
Forecast type: FROM: standard forecast or significant change
Winds: variable direction winds at 3 MPH (3 knots; 1.5 m/s)
Visibility: 4 miles (7 km)
Ceiling: 2500 feet AGL
Clouds: scattered clouds at 1400 feet AGL
broken clouds at 2500 feet AGL
Weather: no significant weather forecast for this period
Text: BECMG 2107/2109 18009KT
Forecast period: 0700 to 1300 UTC 21 August 2019
Forecast type: BECOMING: Conditions expected to become as follows by 0900 UTC 21 August 2019
Winds: from the S (180 degrees) at 10 MPH (9 knots; 4.6 m/s)
Visibility: 4 miles (7 km)
Ceiling: 2500 feet AGL
Clouds: scattered clouds at 1400 feet AGL
broken clouds at 2500 feet AGL
Weather: no significant weather forecast for this period
Text: BECMG 2113/2115 VRB03KT 5000 HZ FEW010 BKN014 OVC020
Forecast period: 1300 UTC 21 August 2019 to 0000 UTC 22 August 2019
Forecast type: BECOMING: Conditions expected to become as follows by 1500 UTC 21 August 2019
Winds: variable direction winds at 3 MPH (3 knots; 1.5 m/s)
Visibility: 3 miles (5 km)
Ceiling: 1400 feet AGL
Clouds: few clouds at 1000 feet AGL
broken clouds at 1400 feet AGL
overcast cloud deck at 2000 feet AGL
Weather: HZ  (haze)